ADDS METAR Data INFO
IDs: Format: Raw Decoded Include TAF

Data at: 2016 UTC 18 Jul 2018

KSMX 181951Z 30009G15KT 10SM SCT200 24/14 A3001 RMK AO2 SLP162 T02390144
KSMX 181851Z 31008KT 280V340 10SM SCT200 23/15 A3002 RMK AO2 SLP167 T02280150
KSMX 181751Z 33007KT 9SM SCT200 22/14 A3002 RMK AO2 SLP165 T02170144 10217 20144 58008
KSMX 181651Z VRB05KT 10SM SCT200 21/14 A3003 RMK AO2 SLP169 T02110139
KSMX 181551Z 00000KT 9SM SCT009 BKN150 18/14 A3005 RMK AO2 SLP175 T01780139
KSMX 181542Z VRB03KT 9SM SCT009 BKN150 17/14 A3005 RMK AO2 T01720139
KSMX 181451Z 20004KT 8SM OVC007 15/13 A3004 RMK AO2 SLP175 T01500133 51014
KSMX 181351Z 21006KT 4SM BR OVC005 14/13 A3003 RMK AO2 SLP170 T01440128 $
KSMX 181251Z 00000KT 1 1/2SM BR OVC002 14/13 A3002 RMK AO2 SLP167 T01440133 $
KSMX 181151Z AUTO 00000KT 4SM BR OVC002 14/13 A3000 RMK AO2 SLP160 T01440133 10156 20144 51004 $
KSMX 181115Z AUTO 30004KT 5SM BR OVC003 14/13 A2999 RMK AO2 CIG 002V005 T01440133 $
KSMX 181051Z AUTO 29003KT 7SM OVC005 15/13 A2999 RMK AO2 SLP157 T01500133 $
KSMX 180951Z AUTO 25003KT 7SM OVC007 15/13 A3000 RMK AO2 SLP161 T01500133 $
KSMX 180851Z AUTO 00000KT 7SM OVC006 16/13 A2999 RMK AO2 SLP156 T01560133 58005 $
KSMX 180817Z AUTO 00000KT 7SM OVC005 16/13 A2999 RMK AO2 T01560133 $
KSMX 180751Z AUTO 00000KT 7SM OVC004 15/13 A2999 RMK AO2 SLP157 T01500133 402220139 $
KSMX 180651Z AUTO 00000KT 5SM BR OVC003 15/14 A3000 RMK AO2 SLP161 T01500139 $
KSMX 180551Z AUTO 00000KT 5SM BR OVC003 15/13 A3000 RMK AO2 SLP161 T01500133 10200 20144 53006 $
KSMX 180451Z AUTO 32004KT 7SM OVC004 15/13 A3000 RMK AO2 SLP158 T01500133 $
KSMX 180351Z AUTO 32006KT 8SM OVC004 15/13 A2999 RMK AO2 SLP157 T01500133 $
KSMX 180342Z AUTO 32008KT 8SM OVC004 15/13 A2999 RMK AO2 T01500133 $
KSMX 180251Z 30009KT 7SM OVC007 16/13 A2998 RMK AO2 SLP156 T01560133 53001 $
KSMX 180233Z 30008KT 7SM BKN008 16/13 A2998 RMK AO2 T01610133 $
KSMX 180204Z 31008KT 9SM BKN010 17/13 A2998 RMK AO2 T01670133 $
KSMX 180151Z 32011KT 9SM SCT010 18/13 A2998 RMK AO2 SLP152 T01780133 $
KSMX 180051Z 31009KT 10SM FEW010 19/14 A2998 RMK AO2 SLP153 T01890139 $
KSMX 172351Z 32007KT 10SM FEW010 20/14 A2998 RMK AO2 SLP154 T02000139 10222 20183 $
KSMX 172251Z 32010KT 10SM CLR 21/14 A2998 RMK AO2 SLP154 T02110139 $
KSMX 172151Z 32010KT 10SM CLR 22/14 A3000 RMK AO2 SLP159 T02170139 $
KSMX 171951Z 32007KT 10SM CLR 22/14 A3000 RMK AO2 SLP161 T02170139
KSMX 171851Z VRB06KT 10SM CLR 21/14 A3002 RMK AO2 SLP165 T02060139
KSMX 171751Z 30005KT 8SM SCT010 19/14 A3002 RMK AO2 SLP167 T01890139 10189 20139 50001
KSMX 171711Z VRB04KT 9SM BKN010 17/13 A3002 RMK AO2 T01720133
KSMX 171651Z VRB03KT 6SM HZ OVC008 17/13 A3003 RMK AO2 SLP169 T01670133
KSMX 171551Z 00000KT 3SM BR OVC005 15/13 A3002 RMK AO2 SLP169 T01500128
KSMX 171451Z 32004KT 2SM BR OVC003 14/13 A3002 RMK AO2 SLP167 T01440133 51008 $
KSMX 171351Z 32004KT 2 1/2SM BR OVC003 14/13 A3001 RMK AO2 SLP163 T01440128 $
KSMX 171307Z 00000KT 2 1/2SM BR OVC004 14/13 A3001 RMK AO2 T01440128 $
KSMX 171251Z VRB03KT 6SM BR OVC004 14/13 A3001 RMK AO2 SLP162 T01440128 $
KSMX 171223Z AUTO 00000KT 6SM BR OVC004 14/13 A3000 RMK AO2 T01440133 $
KSMX 171151Z AUTO 00000KT 7SM OVC005 14/13 A2999 RMK AO2 SLP158 T01440133 10156 20144 51005 $
KSMX 171105Z AUTO 32003KT 8SM OVC005 14/13 A2999 RMK AO2 T01440128 $
KSMX 171051Z AUTO 32004KT 7SM OVC004 14/13 A2999 RMK AO2 SLP158 T01440128 $
KSMX 170951Z AUTO 29004KT 7SM OVC006 15/13 A2999 RMK AO2 SLP156 T01500128 $
KSMX 170851Z AUTO 00000KT 8SM OVC006 15/13 A2998 RMK AO2 SLP153 T01500133 58009 $